createdAt,value
2018-04-19T00:00:19.514Z,10.47
2018-04-19T00:02:47.023Z,10.80
2018-04-19T00:05:14.499Z,9.10
2018-04-19T00:07:41.982Z,11.40
2018-04-19T00:10:09.456Z,7.93
2018-04-19T00:12:36.954Z,10.10
2018-04-19T00:15:04.430Z,8.83
2018-04-19T00:17:32.030Z,13.17
2018-04-19T00:19:59.530Z,11.37
2018-04-19T00:22:27.006Z,9.73
2018-04-19T00:24:54.521Z,10.43
2018-04-19T00:27:22.015Z,11.07
2018-04-19T00:29:49.605Z,9.37
2018-04-19T00:32:17.856Z,10.13
2018-04-19T00:34:45.429Z,7.97
2018-04-19T00:37:12.925Z,10.30
2018-04-19T00:39:40.529Z,10.43
2018-04-19T00:42:08.048Z,9.57
2018-04-19T00:44:35.557Z,10.57
2018-04-19T00:47:03.039Z,10.77
2018-04-19T00:49:30.513Z,11.00
2018-04-19T00:51:58.056Z,12.60
2018-04-19T00:54:25.537Z,12.87
2018-04-19T00:56:53.013Z,10.43
2018-04-19T00:59:20.508Z,11.50
2018-04-19T01:01:48.017Z,10.40
2018-04-19T01:04:15.509Z,13.67
2018-04-19T01:06:42.973Z,10.47
2018-04-19T01:09:10.460Z,11.93
2018-04-19T01:11:37.924Z,11.97
2018-04-19T01:14:05.411Z,12.87
2018-04-19T01:16:32.901Z,10.47
2018-04-19T01:19:00.375Z,11.13
2018-04-19T01:21:27.872Z,10.17
2018-04-19T01:23:55.364Z,10.47
2018-04-19T01:26:22.845Z,11.63
2018-04-19T01:28:51.166Z,13.80
2018-04-19T01:31:18.826Z,10.57
2018-04-19T01:33:46.310Z,14.67
2018-04-19T01:36:25.913Z,11.13
2018-04-19T01:38:53.467Z,12.70
2018-04-19T01:41:20.969Z,13.07
2018-04-19T01:43:48.465Z,8.10
2018-04-19T01:46:15.964Z,10.63
2018-04-19T01:48:43.513Z,9.93
2018-04-19T01:51:11.013Z,11.50
2018-04-19T01:53:38.501Z,11.73
2018-04-19T01:56:05.962Z,9.73
2018-04-19T01:58:33.446Z,12.50
2018-04-19T02:01:00.953Z,8.83
2018-04-19T02:03:28.472Z,10.67
2018-04-19T02:05:56.053Z,12.37
2018-04-19T02:08:23.536Z,11.50
2018-04-19T02:10:51.008Z,9.60
2018-04-19T02:13:18.481Z,10.03
2018-04-19T02:15:45.985Z,12.97
2018-04-19T02:18:13.534Z,10.87
2018-04-19T02:20:41.127Z,13.00
2018-04-19T02:23:08.607Z,10.40
2018-04-19T02:25:36.106Z,10.47
2018-04-19T02:28:03.598Z,11.80
2018-04-19T02:30:31.074Z,11.40
2018-04-19T02:32:58.579Z,11.87
2018-04-19T02:35:26.098Z,12.47
2018-04-19T02:37:53.654Z,13.47
2018-04-19T02:40:21.194Z,14.53
2018-04-19T02:42:48.700Z,12.50
2018-04-19T02:45:16.198Z,15.00
2018-04-19T02:47:43.661Z,10.37
2018-04-19T02:50:11.186Z,14.03
2018-04-19T02:52:38.689Z,9.90
2018-04-19T02:55:06.204Z,14.83
2018-04-19T02:57:33.703Z,11.73
2018-04-19T03:00:01.211Z,12.60
2018-04-19T03:02:28.712Z,14.30
2018-04-19T03:04:56.183Z,12.47
2018-04-19T03:07:23.686Z,12.77
2018-04-19T03:09:51.190Z,12.47
2018-04-19T03:12:18.657Z,12.50
2018-04-19T03:14:46.144Z,13.40
2018-04-19T03:17:13.639Z,13.57
2018-04-19T03:19:41.119Z,11.87
2018-04-19T03:22:08.625Z,16.17
2018-04-19T03:24:36.338Z,12.80
2018-04-19T03:27:04.454Z,10.17
2018-04-19T03:29:31.991Z,15.53
2018-04-19T03:31:59.467Z,15.53
2018-04-19T03:34:26.967Z,14.23
2018-04-19T03:36:54.456Z,13.87
2018-04-19T03:39:21.937Z,14.13
2018-04-19T03:41:49.445Z,12.43
2018-04-19T03:44:16.928Z,14.70
2018-04-19T03:46:44.409Z,15.40
2018-04-19T03:49:11.935Z,15.70
2018-04-19T03:51:39.465Z,17.87
2018-04-19T03:54:06.956Z,14.77
2018-04-19T03:56:34.463Z,14.40
2018-04-19T03:59:01.964Z,11.50
2018-04-19T04:01:29.458Z,14.17
2018-04-19T04:03:56.941Z,13.80
2018-04-19T04:06:24.549Z,16.67
2018-04-19T04:08:52.058Z,15.53
2018-04-19T04:11:19.554Z,12.50
2018-04-19T04:13:47.059Z,15.77
2018-04-19T04:16:26.395Z,17.53
2018-04-19T04:19:05.805Z,18.43
2018-04-19T04:21:33.328Z,18.83
2018-04-19T04:24:00.839Z,15.60
2018-04-19T04:26:28.323Z,17.13
2018-04-19T04:28:55.792Z,18.87
2018-04-19T04:31:23.291Z,20.87
2018-04-19T04:33:50.888Z,21.03
2018-04-19T04:36:18.378Z,17.70
2018-04-19T04:38:45.861Z,17.03
2018-04-19T04:41:13.367Z,16.70
2018-04-19T04:43:40.909Z,16.10
2018-04-19T04:46:08.357Z,13.93
2018-04-19T04:48:35.970Z,17.17
2018-04-19T04:51:03.456Z,16.60
2018-04-19T04:53:30.941Z,17.10
2018-04-19T04:55:58.443Z,19.97
2018-04-19T04:58:25.924Z,19.63
2018-04-19T05:00:53.400Z,16.27
2018-04-19T05:03:20.888Z,18.90
2018-04-19T05:05:48.384Z,19.47
2018-04-19T05:08:20.434Z,15.13
2018-04-19T05:10:47.920Z,19.07
2018-04-19T05:13:15.533Z,22.23
2018-04-19T05:15:43.124Z,15.77
2018-04-19T05:18:10.616Z,18.50
2018-04-19T05:20:38.140Z,17.87
2018-04-19T05:23:05.634Z,20.07
2018-04-19T05:25:33.158Z,19.50
2018-04-19T05:28:00.678Z,17.93
2018-04-19T05:30:28.236Z,21.83
2018-04-19T05:32:55.801Z,18.00
2018-04-19T05:37:57.153Z,17.90
2018-04-19T05:40:24.630Z,16.10
2018-04-19T05:42:52.141Z,29.93
2018-04-19T05:45:19.640Z,17.73
2018-04-19T05:47:47.169Z,18.50
2018-04-19T05:50:14.656Z,16.60
2018-04-19T05:52:42.207Z,15.60
2018-04-19T05:55:09.761Z,17.90
2018-04-19T05:57:37.265Z,16.33
2018-04-19T06:00:04.777Z,15.87
2018-04-19T06:02:32.253Z,18.17
2018-04-19T06:04:59.734Z,19.13
2018-04-19T06:07:27.350Z,21.77
2018-04-19T06:09:54.845Z,19.27
2018-04-19T06:12:22.301Z,25.33
2018-04-19T06:14:49.808Z,18.73
2018-04-19T06:17:17.298Z,20.03
2018-04-19T06:19:44.795Z,16.10
2018-04-19T06:22:12.328Z,16.97
2018-04-19T06:24:39.878Z,17.23
2018-04-19T06:27:07.424Z,16.33
2018-04-19T06:29:34.969Z,18.87
2018-04-19T06:32:02.433Z,15.60
2018-04-19T06:34:29.912Z,17.93
2018-04-19T06:36:57.397Z,16.17
2018-04-19T06:39:24.880Z,15.50
2018-04-19T06:41:52.462Z,18.87
2018-04-19T06:44:19.983Z,15.07
2018-04-19T06:46:47.503Z,18.03
2018-04-19T06:49:15.011Z,15.10
2018-04-19T06:51:42.625Z,15.33
2018-04-19T06:54:10.127Z,13.23
2018-04-19T06:56:37.602Z,14.70
2018-04-19T06:59:05.074Z,13.37
2018-04-19T07:01:32.555Z,13.03
2018-04-19T07:04:00.045Z,15.90
2018-04-19T07:06:27.740Z,13.67
2018-04-19T07:08:55.226Z,12.83
2018-04-19T07:11:22.712Z,12.47
2018-04-19T07:13:50.194Z,11.40
2018-04-19T07:16:17.684Z,13.73
2018-04-19T07:18:45.168Z,9.40
2018-04-19T07:21:12.636Z,15.20
2018-04-19T07:23:40.112Z,11.13
2018-04-19T07:26:07.587Z,12.20
2018-04-19T07:28:35.123Z,13.40
2018-04-19T07:31:02.648Z,12.33
2018-04-19T07:33:30.202Z,15.00
2018-04-19T07:35:57.657Z,13.07
2018-04-19T07:38:25.163Z,11.00
2018-04-19T07:40:52.695Z,10.60
2018-04-19T07:43:20.218Z,11.87
2018-04-19T07:45:47.702Z,12.27
2018-04-19T07:48:15.276Z,12.00
2018-04-19T07:50:43.076Z,13.60
2018-04-19T07:53:10.547Z,13.80
2018-04-19T07:55:38.141Z,13.13
2018-04-19T07:58:05.660Z,9.23
2018-04-19T08:00:33.124Z,16.17
2018-04-19T08:03:00.619Z,11.77
2018-04-19T08:05:28.170Z,8.87
2018-04-19T08:07:55.617Z,11.03
2018-04-19T08:10:23.107Z,8.57
2018-04-19T08:12:50.593Z,11.47
2018-04-19T08:15:18.064Z,9.80
2018-04-19T08:17:45.553Z,9.60
2018-04-19T08:20:13.036Z,11.80
2018-04-19T08:22:40.510Z,9.03
2018-04-19T08:25:08.013Z,12.40
2018-04-19T08:27:35.482Z,8.63
2018-04-19T08:30:02.957Z,8.27
2018-04-19T08:32:30.427Z,9.23
2018-04-19T08:34:57.958Z,8.17
2018-04-19T08:37:25.410Z,8.10
2018-04-19T08:39:52.943Z,11.23
2018-04-19T08:42:20.442Z,8.87
2018-04-19T08:44:47.912Z,8.77
2018-04-19T08:47:15.397Z,7.67
2018-04-19T08:49:42.887Z,9.13
2018-04-19T08:52:10.380Z,9.07
2018-04-19T08:54:37.893Z,13.30
2018-04-19T08:57:05.369Z,6.83
2018-04-19T08:59:32.859Z,6.83
2018-04-19T09:02:00.313Z,7.87
2018-04-19T09:04:27.797Z,8.90
2018-04-19T09:06:55.283Z,6.67
2018-04-19T09:09:22.769Z,9.93
2018-04-19T09:11:50.256Z,11.87
2018-04-19T09:14:17.790Z,6.87
2018-04-19T09:16:45.257Z,7.67
2018-04-19T09:19:12.751Z,8.67
2018-04-19T09:21:40.251Z,7.93
2018-04-19T09:24:07.732Z,8.10
2018-04-19T09:26:35.372Z,9.47
2018-04-19T09:29:02.936Z,6.93
2018-04-19T09:31:30.391Z,7.57
2018-04-19T09:33:57.871Z,8.60
2018-04-19T09:36:25.359Z,12.17
2018-04-19T09:38:52.818Z,7.90
2018-04-19T09:41:20.304Z,7.07
2018-04-19T09:43:47.775Z,7.10
2018-04-19T09:46:15.230Z,7.17
2018-04-19T09:48:42.695Z,5.90
2018-04-19T09:51:10.155Z,5.87
2018-04-19T09:53:37.644Z,7.33
2018-04-19T09:56:05.114Z,7.73
2018-04-19T09:58:32.665Z,6.57
2018-04-19T10:01:05.950Z,8.60
2018-04-19T10:03:39.120Z,5.33
2018-04-19T10:06:08.430Z,7.50
2018-04-19T10:08:35.907Z,6.43
2018-04-19T10:11:03.420Z,7.20
2018-04-19T10:13:30.894Z,7.53
2018-04-19T10:15:58.439Z,5.27
2018-04-19T10:18:25.892Z,7.23
2018-04-19T10:20:53.371Z,5.50
2018-04-19T10:23:20.823Z,7.87
2018-04-19T10:25:48.332Z,6.57
2018-04-19T10:28:15.818Z,6.80
2018-04-19T10:30:43.378Z,6.13
2018-04-19T10:33:10.885Z,7.23
2018-04-19T10:35:38.346Z,7.30
2018-04-19T10:38:05.832Z,6.93
2018-04-19T10:40:33.360Z,6.17
2018-04-19T10:43:00.857Z,7.87
2018-04-19T10:45:28.326Z,5.43
2018-04-19T10:47:55.804Z,7.00
2018-04-19T10:50:23.260Z,6.90
2018-04-19T10:52:50.774Z,6.13
2018-04-19T10:55:18.238Z,7.03
2018-04-19T10:57:45.717Z,7.57
2018-04-19T11:00:13.209Z,6.83
2018-04-19T11:02:41.733Z,6.33
2018-04-19T11:05:09.212Z,4.80
2018-04-19T11:07:36.897Z,5.47
2018-04-19T11:10:04.383Z,6.37
2018-04-19T11:12:31.865Z,7.27
2018-04-19T11:14:59.348Z,5.27
2018-04-19T11:17:26.836Z,6.80
2018-04-19T11:19:54.401Z,5.80
2018-04-19T11:22:21.883Z,5.97
2018-04-19T11:24:49.488Z,6.00
2018-04-19T11:27:16.990Z,7.03
2018-04-19T11:29:44.491Z,6.33
2018-04-19T11:32:12.002Z,8.53
2018-04-19T11:34:39.545Z,6.93
2018-04-19T11:37:07.031Z,10.20
2018-04-19T11:39:35.576Z,8.27
2018-04-19T11:42:03.162Z,6.90
2018-04-19T11:44:30.636Z,12.15
2018-04-19T11:46:58.117Z,8.27
2018-04-19T11:49:25.603Z,9.95
2018-04-19T11:51:53.062Z,10.38
2018-04-19T11:54:20.532Z,12.25
2018-04-19T11:56:48.014Z,10.30
2018-04-19T11:59:15.511Z,8.00
2018-04-19T12:01:42.985Z,8.65
2018-04-19T12:04:10.470Z,8.23
2018-04-19T12:06:37.930Z,7.12
2018-04-19T12:09:06.264Z,7.55
2018-04-19T12:11:33.744Z,6.62
2018-04-19T12:14:01.222Z,6.62
2018-04-19T12:16:28.831Z,6.95
2018-04-19T12:18:56.326Z,5.80
2018-04-19T12:21:23.795Z,6.12
2018-04-19T12:23:51.272Z,4.80
2018-04-19T12:26:18.758Z,7.22
2018-04-19T12:28:46.223Z,9.07
2018-04-19T12:31:13.695Z,5.28
2018-04-19T12:33:41.182Z,6.35
2018-04-19T12:36:08.636Z,6.30
2018-04-19T12:38:36.161Z,5.32
2018-04-19T12:41:03.638Z,5.00
2018-04-19T12:43:31.161Z,5.62
2018-04-19T12:45:58.638Z,6.90
2018-04-19T12:48:26.112Z,5.57
2018-04-19T12:50:53.679Z,6.37
2018-04-19T12:53:21.149Z,5.80
2018-04-19T12:55:48.605Z,5.03
2018-04-19T12:58:16.091Z,5.62
2018-04-19T13:00:43.576Z,5.87
2018-04-19T13:03:11.072Z,6.35
2018-04-19T13:05:38.560Z,8.40
2018-04-19T13:08:06.042Z,5.47
2018-04-19T13:10:33.649Z,6.68
2018-04-19T13:13:01.216Z,5.70
2018-04-19T13:15:28.691Z,6.30
2018-04-19T13:17:56.184Z,6.35
2018-04-19T13:20:23.724Z,6.05
2018-04-19T13:22:51.342Z,9.05
2018-04-19T13:25:18.815Z,5.00
2018-04-19T13:27:46.305Z,6.25
2018-04-19T13:30:13.749Z,8.98
2018-04-19T13:32:41.245Z,8.55
2018-04-19T13:35:08.741Z,7.25
2018-04-19T13:37:36.452Z,6.28
2018-04-19T13:40:03.931Z,6.55
2018-04-19T13:42:31.410Z,7.35
2018-04-19T13:44:58.888Z,4.95
2018-04-19T13:47:26.404Z,5.30
2018-04-19T13:49:53.866Z,5.18
2018-04-19T13:52:21.336Z,4.70
2018-04-19T13:54:48.823Z,4.65
2018-04-19T13:57:16.296Z,3.95
2018-04-19T13:59:43.774Z,7.07
2018-04-19T14:02:11.318Z,6.00
2018-04-19T14:04:38.732Z,5.53
2018-04-19T14:07:06.197Z,4.28
2018-04-19T14:09:33.674Z,4.40
2018-04-19T14:12:01.156Z,5.22
2018-04-19T14:14:28.630Z,5.05
2018-04-19T14:16:56.145Z,5.85
2018-04-19T14:19:23.749Z,4.35
2018-04-19T14:21:51.296Z,6.57
2018-04-19T14:24:18.791Z,4.90
2018-04-19T14:26:46.324Z,4.20
2018-04-19T14:29:13.873Z,5.93
2018-04-19T14:31:41.331Z,5.55
2018-04-19T14:34:08.888Z,4.68
2018-04-19T14:36:42.243Z,4.00
2018-04-19T14:39:11.710Z,5.20
2018-04-19T14:41:46.961Z,5.80
2018-04-19T14:44:21.917Z,6.53
2018-04-19T14:46:51.226Z,9.85
2018-04-19T14:49:25.136Z,4.28
2018-04-19T14:51:57.226Z,5.65
2018-04-19T14:54:32.416Z,8.40
2018-04-19T14:57:00.702Z,8.35
2018-04-19T14:59:28.192Z,4.78
2018-04-19T15:01:55.749Z,5.20
2018-04-19T15:04:23.236Z,8.90
2018-04-19T15:06:50.725Z,5.25
2018-04-19T15:09:18.236Z,4.37
2018-04-19T15:11:45.699Z,4.43
2018-04-19T15:14:13.201Z,8.40
2018-04-19T15:16:40.738Z,4.85
2018-04-19T15:19:08.225Z,5.93
2018-04-19T15:21:35.860Z,11.07
2018-04-19T15:24:03.348Z,7.18
2018-04-19T15:26:30.829Z,6.87
2018-04-19T15:28:58.317Z,5.70
2018-04-19T15:31:25.779Z,8.85
2018-04-19T15:33:53.233Z,3.72
2018-04-19T15:36:20.721Z,5.57
2018-04-19T15:38:48.195Z,6.35
2018-04-19T15:41:15.699Z,4.12
2018-04-19T15:43:43.211Z,4.97
2018-04-19T15:46:10.726Z,4.97
2018-04-19T15:48:38.212Z,5.25
2018-04-19T15:51:05.766Z,8.63
2018-04-19T15:53:33.236Z,5.85
2018-04-19T15:56:00.751Z,5.95
2018-04-19T15:58:28.263Z,7.07
2018-04-19T16:00:55.723Z,7.10
2018-04-19T16:03:23.204Z,7.12
2018-04-19T16:05:50.669Z,5.22
2018-04-19T16:08:18.147Z,8.07
2018-04-19T16:10:45.635Z,7.18
2018-04-19T16:13:13.109Z,7.07
2018-04-19T16:15:40.608Z,5.97
2018-04-19T16:18:08.087Z,5.97
2018-04-19T16:20:35.585Z,8.48
2018-04-19T16:23:03.093Z,4.60
2018-04-19T16:25:30.650Z,5.45
2018-04-19T16:27:58.100Z,6.95
2018-04-19T16:30:25.609Z,4.60
2018-04-19T16:32:53.083Z,5.18
2018-04-19T16:35:20.664Z,5.30
2018-04-19T16:37:48.147Z,4.28
2018-04-19T16:40:15.768Z,4.68
2018-04-19T16:42:43.219Z,7.20
2018-04-19T16:45:10.705Z,6.78
2018-04-19T16:47:38.203Z,6.32
2018-04-19T16:50:05.685Z,6.95
2018-04-19T16:52:33.202Z,6.32
2018-04-19T16:55:00.701Z,4.75
2018-04-19T16:57:28.179Z,5.30
2018-04-19T16:59:55.726Z,4.25
2018-04-19T17:02:23.199Z,5.57
2018-04-19T17:04:50.705Z,6.43
2018-04-19T17:07:18.178Z,6.22
2018-04-19T17:09:45.642Z,6.60
2018-04-19T17:12:13.122Z,5.95
2018-04-19T17:14:40.624Z,6.90
2018-04-19T17:17:08.117Z,4.40
2018-04-19T17:19:35.633Z,5.45
2018-04-19T17:22:03.120Z,5.55
2018-04-19T17:24:30.648Z,6.95
2018-04-19T17:26:58.120Z,5.87
2018-04-19T17:29:25.666Z,6.72
2018-04-19T17:31:53.143Z,7.57
2018-04-19T17:34:20.646Z,8.27
2018-04-19T17:36:48.287Z,6.18
2018-04-19T17:39:15.884Z,4.30
2018-04-19T17:41:43.358Z,5.80
2018-04-19T17:44:16.704Z,6.47
2018-04-19T17:46:44.180Z,6.07
2018-04-19T17:49:11.721Z,8.83
2018-04-19T17:51:42.425Z,4.63
2018-04-19T17:54:10.849Z,8.40
2018-04-19T17:56:38.433Z,7.27
2018-04-19T17:59:05.935Z,5.13
2018-04-19T18:01:33.422Z,10.40
2018-04-19T18:04:00.996Z,5.93
2018-04-19T18:06:30.024Z,8.63
2018-04-19T18:08:57.517Z,6.63
2018-04-19T18:11:24.998Z,6.87
2018-04-19T18:13:52.498Z,8.00
2018-04-19T18:16:20.010Z,5.93
2018-04-19T18:18:47.517Z,8.13
2018-04-19T18:21:14.980Z,8.27
2018-04-19T18:23:42.453Z,7.53
2018-04-19T18:26:10.010Z,6.00
2018-04-19T18:28:37.550Z,6.00
2018-04-19T18:31:05.064Z,6.97
2018-04-19T18:33:32.820Z,6.43
2018-04-19T18:36:03.525Z,7.13
2018-04-19T18:38:31.049Z,6.73
2018-04-19T18:40:58.606Z,8.47
2018-04-19T18:43:26.671Z,6.87
2018-04-19T18:45:54.177Z,8.37
2018-04-19T18:48:21.646Z,11.47
2018-04-19T18:50:51.278Z,10.93
2018-04-19T18:53:18.799Z,12.40
2018-04-19T18:55:46.738Z,16.80
2018-04-19T18:58:14.742Z,10.83
2018-04-19T19:00:42.209Z,14.03
2018-04-19T19:03:15.449Z,10.67
2018-04-19T19:05:43.129Z,8.63
2018-04-19T19:08:10.629Z,13.83
2018-04-19T19:10:38.143Z,13.63
2018-04-19T19:13:05.782Z,13.70
2018-04-19T19:19:03.465Z,10.33
2018-04-19T19:21:30.963Z,15.73
2018-04-19T19:23:58.500Z,17.13
2018-04-19T19:26:25.997Z,16.33
2018-04-19T19:28:53.539Z,16.53
2018-04-19T19:31:21.232Z,8.00
2018-04-19T19:33:48.778Z,13.37
2018-04-19T19:36:16.245Z,9.67
2018-04-19T19:38:43.709Z,13.20
2018-04-19T19:41:11.591Z,13.23
2018-04-19T19:43:39.108Z,17.73
2018-04-19T19:46:06.615Z,16.77
2018-04-19T19:48:34.170Z,10.50
2018-04-19T19:51:01.678Z,17.03
2018-04-19T19:53:29.297Z,9.87
2018-04-19T19:55:57.046Z,15.00
2018-04-19T19:58:26.656Z,11.30
2018-04-19T20:00:55.700Z,12.87
2018-04-19T20:03:23.258Z,19.83
2018-04-19T20:05:50.970Z,12.90
2018-04-19T20:08:18.446Z,14.17
2018-04-19T20:10:47.970Z,13.90
2018-04-19T20:13:15.486Z,19.47
2018-04-19T20:15:43.124Z,11.97
2018-04-19T20:18:10.758Z,12.10
2018-04-19T20:20:38.430Z,15.50
2018-04-19T20:23:05.928Z,14.60
2018-04-19T20:25:33.478Z,21.53
2018-04-19T20:28:01.174Z,15.00
2018-04-19T20:30:28.669Z,15.77
2018-04-19T20:32:56.311Z,16.93
2018-04-19T20:35:23.837Z,15.53
2018-04-19T20:37:51.328Z,10.47
2018-04-19T20:40:18.811Z,16.37
2018-04-19T20:42:46.479Z,14.30
2018-04-19T20:45:14.063Z,15.33
2018-04-19T20:47:41.547Z,10.40
2018-04-19T20:50:09.121Z,14.13
2018-04-19T20:52:37.130Z,14.37
2018-04-19T20:55:04.548Z,15.50
2018-04-19T20:57:32.114Z,14.83
2018-04-19T21:00:00.680Z,15.60
2018-04-19T21:02:28.245Z,14.37
2018-04-19T21:04:55.858Z,13.27
2018-04-19T21:07:23.333Z,13.77
2018-04-19T21:09:51.010Z,13.57
2018-04-19T21:12:18.739Z,11.53
2018-04-19T21:14:47.134Z,9.17
2018-04-19T21:17:15.259Z,11.17
2018-04-19T21:19:42.760Z,11.33
2018-04-19T21:22:11.944Z,10.83
2018-04-19T21:24:39.448Z,10.20
2018-04-19T21:27:07.940Z,10.67
2018-04-19T21:29:35.439Z,8.90
2018-04-19T21:32:02.912Z,11.07
2018-04-19T21:34:31.383Z,9.37
2018-04-19T21:36:58.916Z,10.17
2018-04-19T21:39:26.384Z,9.27
2018-04-19T21:41:53.904Z,7.77
2018-04-19T21:44:21.418Z,7.27
2018-04-19T21:46:49.094Z,8.70
2018-04-19T21:49:16.593Z,8.20
2018-04-19T21:51:44.207Z,9.83
2018-04-19T21:54:11.723Z,8.17
2018-04-19T21:56:39.184Z,8.30
2018-04-19T21:59:06.706Z,9.90
2018-04-19T22:01:34.199Z,8.73
2018-04-19T22:04:01.682Z,7.70
2018-04-19T22:06:29.197Z,8.30
2018-04-19T22:08:56.699Z,9.47
2018-04-19T22:11:24.190Z,7.53
2018-04-19T22:13:51.670Z,9.57
2018-04-19T22:16:19.158Z,7.50
2018-04-19T22:18:46.657Z,7.60
2018-04-19T22:21:14.122Z,7.07
2018-04-19T22:23:41.593Z,9.33
2018-04-19T22:26:09.080Z,11.97
2018-04-19T22:28:36.629Z,7.13
2018-04-19T22:31:04.106Z,7.13
2018-04-19T22:33:31.583Z,8.40
2018-04-19T22:35:59.074Z,8.43
2018-04-19T22:38:26.577Z,8.33
2018-04-19T22:40:54.051Z,10.47
2018-04-19T22:43:21.540Z,8.90
2018-04-19T22:45:49.152Z,15.40
2018-04-19T22:48:16.617Z,7.57
2018-04-19T22:50:44.070Z,8.70
2018-04-19T22:53:11.556Z,6.63
2018-04-19T22:55:39.128Z,5.90
2018-04-19T22:58:06.601Z,6.93
2018-04-19T23:00:34.169Z,5.97
2018-04-19T23:03:01.662Z,6.93
2018-04-19T23:05:29.176Z,7.30
2018-04-19T23:07:56.652Z,5.63
2018-04-19T23:10:24.110Z,9.03
2018-04-19T23:12:51.587Z,7.20
2018-04-19T23:15:19.581Z,6.97
2018-04-19T23:17:47.069Z,9.67
2018-04-19T23:20:14.589Z,6.97
2018-04-19T23:22:42.086Z,7.07
2018-04-19T23:25:09.637Z,6.73
2018-04-19T23:27:37.095Z,7.03
2018-04-19T23:30:04.594Z,8.67
2018-04-19T23:32:32.086Z,6.13
2018-04-19T23:34:59.558Z,8.33
2018-04-19T23:37:27.069Z,6.63
2018-04-19T23:39:54.533Z,6.50
2018-04-19T23:42:22.001Z,5.03
2018-04-19T23:44:49.498Z,7.80
2018-04-19T23:47:16.995Z,5.53
2018-04-19T23:49:44.535Z,5.47
2018-04-19T23:52:12.003Z,8.27
2018-04-19T23:54:39.569Z,7.70
2018-04-19T23:57:07.044Z,6.53
2018-04-19T23:59:34.676Z,6.47
